createdAt,value
2022-09-06T00:10:22.368Z,13.97
2022-09-06T00:25:22.954Z,14.35
2022-09-06T00:40:24.837Z,14.77
2022-09-06T00:55:25.416Z,14.55
2022-09-06T01:10:26.508Z,14.09
2022-09-06T01:25:27.421Z,13.66
2022-09-06T01:40:27.534Z,13.46
2022-09-06T01:55:28.688Z,13.62
2022-09-06T02:10:30.531Z,13.71
2022-09-06T02:25:31.945Z,13.81
2022-09-06T02:40:33.999Z,13.89
2022-09-06T02:55:34.281Z,14.10
2022-09-06T03:10:36.979Z,14.00
2022-09-06T03:25:37.573Z,13.71
2022-09-06T03:40:39.233Z,13.42
2022-09-06T03:55:40.207Z,13.22
2022-09-06T04:10:40.952Z,12.86
2022-09-06T04:25:42.289Z,12.71
2022-09-06T04:40:43.461Z,12.78
2022-09-06T04:55:44.593Z,12.89
2022-09-06T05:10:46.760Z,13.17
2022-09-06T05:25:48.111Z,13.91
2022-09-06T05:40:48.408Z,14.73
2022-09-06T05:55:48.504Z,16.02
2022-09-06T06:10:49.876Z,17.37
2022-09-06T06:25:50.953Z,18.27
2022-09-06T06:40:54.124Z,18.57
2022-09-06T06:55:57.193Z,18.52
2022-09-06T07:10:58.564Z,18.14
2022-09-06T07:25:58.963Z,18.58
2022-09-06T07:41:00.515Z,19.37
2022-09-06T07:56:01.883Z,20.35
2022-09-06T08:11:03.248Z,20.77
2022-09-06T08:26:03.358Z,21.28
2022-09-06T08:41:04.233Z,21.46
2022-09-06T08:56:04.975Z,21.86
2022-09-06T09:11:05.417Z,21.96
2022-09-06T09:26:06.447Z,21.91
2022-09-06T09:41:06.006Z,22.06
2022-09-06T09:56:06.581Z,21.58
2022-09-06T10:11:06.690Z,22.51
2022-09-06T10:26:07.750Z,22.17
2022-09-06T10:41:07.832Z,21.94
2022-09-06T10:56:08.429Z,22.72
2022-09-06T11:11:09.043Z,22.57
2022-09-06T11:26:09.612Z,22.14
2022-09-06T11:41:12.087Z,22.02
2022-09-06T11:56:12.837Z,22.17
2022-09-06T12:11:12.916Z,22.14
2022-09-06T12:26:12.978Z,22.18
2022-09-06T12:41:13.067Z,22.42
2022-09-06T12:56:13.675Z,22.68
2022-09-06T13:11:13.801Z,22.61
2022-09-06T13:26:13.895Z,22.90
2022-09-06T13:41:16.430Z,23.05
2022-09-06T13:56:20.553Z,22.94
2022-09-06T14:11:20.881Z,23.17
2022-09-06T14:26:21.325Z,23.51
2022-09-06T14:41:22.658Z,24.00
2022-09-06T14:56:23.225Z,24.47
2022-09-06T15:11:23.123Z,24.57
2022-09-06T15:26:23.718Z,24.02
2022-09-06T15:41:25.571Z,23.51
2022-09-06T15:56:27.436Z,22.76
2022-09-06T16:11:27.528Z,22.57
2022-09-06T16:26:27.631Z,22.30
2022-09-06T16:41:28.235Z,22.05
2022-09-06T16:56:29.295Z,21.64
2022-09-06T17:11:28.965Z,21.37
2022-09-06T17:26:29.052Z,20.94
2022-09-06T17:41:29.142Z,20.64
2022-09-06T17:56:29.235Z,20.47
2022-09-06T18:11:29.344Z,20.20
2022-09-06T18:26:29.444Z,19.95
2022-09-06T18:41:29.519Z,19.83
2022-09-06T18:56:29.642Z,19.62
2022-09-06T19:11:29.729Z,19.46
2022-09-06T19:26:31.892Z,19.37
2022-09-06T19:41:34.497Z,19.13
2022-09-06T19:56:34.594Z,19.07
2022-09-06T20:11:35.931Z,18.94
2022-09-06T20:26:36.640Z,18.90
2022-09-06T20:41:38.962Z,18.72
2022-09-06T20:56:40.809Z,18.42
2022-09-06T21:11:41.427Z,18.47
2022-09-06T21:26:42.375Z,18.36
2022-09-06T21:41:44.719Z,18.05
2022-09-06T21:56:45.398Z,18.08
2022-09-06T22:11:48.499Z,18.00
2022-09-06T22:26:49.692Z,17.87
2022-09-06T22:41:51.492Z,17.74
2022-09-06T22:56:53.378Z,17.62
2022-09-06T23:11:54.762Z,17.21
2022-09-06T23:26:56.131Z,17.06
2022-09-06T23:41:57.666Z,16.52
2022-09-06T23:56:58.291Z,16.23
